createdAt,value
2022-10-24T00:02:13.760Z,72.10
2022-10-24T00:07:16.058Z,72.11
2022-10-24T00:12:19.486Z,72.29
2022-10-24T00:17:21.521Z,72.04
2022-10-24T00:22:23.288Z,72.39
2022-10-24T00:27:25.484Z,72.07
2022-10-24T00:32:27.352Z,72.63
2022-10-24T00:37:29.145Z,72.19
2022-10-24T00:42:30.988Z,72.09
2022-10-24T00:47:32.854Z,71.66
2022-10-24T00:52:40.221Z,71.76
2022-10-24T00:57:55.096Z,71.32
2022-10-24T01:02:57.474Z,71.31
2022-10-24T01:08:09.977Z,71.75
2022-10-24T01:13:40.075Z,71.70
2022-10-24T01:19:32.904Z,71.83
2022-10-24T01:24:46.491Z,72.00
2022-10-24T01:30:13.241Z,72.02
2022-10-24T01:35:36.162Z,71.82
2022-10-24T01:40:48.798Z,71.68
2022-10-24T01:46:04.251Z,71.67
2022-10-24T01:51:08.310Z,71.64
2022-10-24T01:56:10.349Z,71.48
2022-10-24T02:01:22.312Z,71.56
2022-10-24T02:06:26.717Z,71.71
2022-10-24T02:11:28.609Z,71.74
2022-10-24T02:16:31.181Z,71.65
2022-10-24T02:21:55.780Z,71.72
2022-10-24T02:27:03.730Z,71.94
2022-10-24T02:32:09.514Z,71.74
2022-10-24T02:37:13.743Z,71.40
2022-10-24T02:42:19.581Z,71.62
2022-10-24T02:47:24.620Z,71.96
2022-10-24T02:52:27.148Z,71.98
2022-10-24T02:57:29.134Z,71.86
2022-10-24T03:02:30.922Z,71.74
2022-10-24T03:07:32.752Z,71.92
2022-10-24T03:12:34.591Z,71.95
2022-10-24T03:17:36.370Z,71.94
2022-10-24T03:22:38.209Z,71.76
2022-10-24T03:27:40.034Z,71.86
2022-10-24T03:32:42.010Z,71.92
2022-10-24T03:37:44.078Z,71.94
2022-10-24T03:42:46.176Z,72.07
2022-10-24T03:47:48.296Z,72.42
2022-10-24T03:52:50.145Z,71.86
2022-10-24T03:57:52.332Z,71.85
2022-10-24T04:02:54.323Z,71.65
2022-10-24T04:07:56.322Z,71.78
2022-10-24T04:12:58.151Z,71.76
2022-10-24T04:17:59.981Z,71.89
2022-10-24T04:23:04.401Z,71.59
2022-10-24T04:28:06.876Z,71.45
2022-10-24T04:33:08.701Z,71.90
2022-10-24T04:38:10.515Z,72.44
2022-10-24T04:43:12.354Z,71.93
2022-10-24T04:48:15.254Z,71.75
2022-10-24T04:53:17.055Z,71.58
2022-10-24T04:58:18.913Z,71.75
2022-10-24T05:03:23.383Z,71.80
2022-10-24T05:08:25.237Z,71.83
2022-10-24T05:13:26.984Z,71.78
2022-10-24T05:18:28.887Z,71.94
2022-10-24T05:23:30.764Z,72.01
2022-10-24T05:28:33.467Z,72.11
2022-10-24T05:33:35.495Z,71.84
2022-10-24T05:38:37.323Z,71.56
2022-10-24T05:43:39.135Z,71.70
2022-10-24T05:48:40.924Z,71.94
2022-10-24T05:53:42.817Z,71.74
2022-10-24T05:58:44.663Z,72.25
2022-10-24T06:03:46.860Z,72.29
2022-10-24T06:08:48.731Z,72.38
2022-10-24T06:13:50.548Z,72.20
2022-10-24T06:18:52.432Z,71.95
2022-10-24T06:23:54.623Z,72.09
2022-10-24T06:28:56.481Z,71.87
2022-10-24T06:33:58.411Z,71.23
2022-10-24T06:39:00.320Z,71.38
2022-10-24T06:44:04.332Z,71.73
2022-10-24T06:49:08.012Z,72.30
2022-10-24T06:54:10.059Z,71.90
2022-10-24T06:59:15.756Z,71.53
2022-10-24T07:04:17.714Z,71.28
2022-10-24T07:09:19.620Z,71.33
2022-10-24T07:14:21.445Z,71.45
2022-10-24T07:19:23.245Z,71.11
2022-10-24T07:24:25.143Z,71.04
2022-10-24T07:29:26.984Z,70.78
2022-10-24T07:34:28.970Z,70.39
2022-10-24T07:39:30.800Z,69.85
2022-10-24T07:44:32.654Z,69.63
2022-10-24T07:49:34.860Z,69.72
2022-10-24T07:54:37.577Z,69.48
2022-10-24T07:59:42.987Z,69.48
2022-10-24T08:04:45.085Z,69.32
2022-10-24T08:09:48.224Z,69.80
2022-10-24T08:14:50.054Z,69.88
2022-10-24T08:19:52.273Z,69.62
2022-10-24T08:24:54.212Z,69.15
2022-10-24T08:29:56.183Z,69.45
2022-10-24T08:34:58.433Z,69.51
2022-10-24T08:40:00.373Z,68.85
2022-10-24T08:45:02.665Z,68.83
2022-10-24T08:50:28.422Z,68.44
2022-10-24T08:55:50.963Z,67.87
2022-10-24T09:00:55.884Z,67.70
2022-10-24T09:06:02.864Z,67.23
2022-10-24T09:11:06.640Z,67.37
2022-10-24T09:16:14.790Z,67.06
2022-10-24T09:21:16.948Z,66.58
2022-10-24T09:26:27.780Z,65.33
2022-10-24T09:31:29.847Z,65.08
2022-10-24T09:36:31.787Z,65.24
2022-10-24T09:41:35.056Z,64.70
2022-10-24T09:46:36.936Z,64.28
2022-10-24T09:51:58.968Z,62.11
2022-10-24T09:57:30.793Z,62.46
2022-10-24T10:02:34.830Z,62.74
2022-10-24T10:07:42.583Z,62.30
2022-10-24T10:12:55.042Z,61.88
2022-10-24T10:18:00.306Z,59.81
2022-10-24T10:23:25.894Z,59.51
2022-10-24T10:28:27.807Z,59.11
2022-10-24T10:33:45.657Z,57.14
2022-10-24T10:38:58.174Z,56.38
2022-10-24T10:44:21.096Z,56.30
2022-10-24T10:49:30.855Z,56.06
2022-10-24T10:54:49.096Z,54.36
2022-10-24T11:00:36.057Z,54.54
2022-10-24T11:05:45.300Z,55.49
2022-10-24T11:10:55.275Z,55.05
2022-10-24T11:16:02.296Z,54.75
2022-10-24T11:21:16.295Z,54.52
2022-10-24T11:26:34.987Z,53.33
2022-10-24T11:31:45.166Z,52.34
2022-10-24T11:36:56.130Z,52.27
2022-10-24T11:42:25.838Z,48.96
2022-10-24T11:47:27.865Z,50.58
2022-10-24T11:52:35.669Z,49.18
2022-10-24T11:57:38.695Z,48.19
2022-10-24T12:03:19.237Z,46.35
2022-10-24T12:08:39.878Z,46.27
2022-10-24T12:13:50.047Z,47.07
2022-10-24T12:18:59.160Z,46.26
2022-10-24T12:24:01.804Z,47.15
2022-10-24T12:29:21.198Z,46.00
2022-10-24T12:34:23.306Z,47.37
2022-10-24T12:39:34.446Z,46.95
2022-10-24T12:44:39.723Z,47.71
2022-10-24T12:49:41.578Z,47.75
2022-10-24T12:54:45.736Z,47.87
2022-10-24T12:59:48.705Z,47.81
2022-10-24T13:05:24.148Z,47.73
2022-10-24T13:10:53.812Z,47.66
2022-10-24T13:16:15.964Z,48.38
2022-10-24T13:21:20.416Z,48.42
2022-10-24T13:26:58.401Z,47.31
2022-10-24T13:32:06.418Z,46.63
2022-10-24T13:37:24.593Z,46.29
2022-10-24T13:42:51.346Z,45.82
2022-10-24T13:47:59.984Z,46.83
2022-10-24T13:53:30.560Z,46.34
2022-10-24T13:58:42.087Z,46.71
2022-10-24T14:03:48.339Z,46.44
2022-10-24T14:09:02.788Z,46.59
2022-10-24T14:14:13.837Z,46.58
2022-10-24T14:19:17.774Z,47.34
2022-10-24T14:24:23.144Z,47.09
2022-10-24T14:29:34.355Z,47.20
2022-10-24T14:34:38.858Z,47.09
2022-10-24T14:39:41.362Z,47.95
2022-10-24T14:44:46.454Z,47.72
2022-10-24T14:49:48.867Z,47.66
2022-10-24T14:55:21.465Z,47.80
2022-10-24T15:00:26.603Z,48.03
2022-10-24T15:05:31.449Z,48.21
2022-10-24T15:10:38.858Z,47.91
2022-10-24T15:15:43.556Z,47.74
2022-10-24T15:20:47.554Z,47.96
2022-10-24T15:26:02.845Z,47.18
2022-10-24T15:31:10.364Z,47.95
2022-10-24T15:36:30.650Z,48.26
2022-10-24T15:41:33.948Z,48.47
2022-10-24T15:46:35.809Z,48.73
2022-10-24T15:51:39.202Z,49.11
2022-10-24T15:56:41.421Z,49.13
2022-10-24T16:01:53.615Z,49.33
2022-10-24T16:06:56.701Z,49.01
2022-10-24T16:11:59.543Z,49.54
2022-10-24T16:17:02.081Z,49.39
2022-10-24T16:22:05.123Z,49.49
2022-10-24T16:27:08.743Z,49.99
2022-10-24T16:32:12.345Z,49.77
2022-10-24T16:37:14.856Z,50.28
2022-10-24T16:42:18.543Z,51.08
2022-10-24T16:47:20.953Z,52.22
2022-10-24T16:52:23.883Z,51.87
2022-10-24T16:57:26.374Z,51.93
2022-10-24T17:02:28.625Z,52.33
2022-10-24T17:07:30.566Z,52.45
2022-10-24T17:12:32.716Z,52.98
2022-10-24T17:17:34.974Z,52.52
2022-10-24T17:22:37.472Z,52.63
2022-10-24T17:27:39.645Z,52.75
2022-10-24T17:32:42.015Z,53.46
2022-10-24T17:38:05.413Z,53.97
2022-10-24T17:43:21.358Z,53.50
2022-10-24T17:48:24.545Z,53.34
2022-10-24T17:53:26.814Z,53.44
2022-10-24T17:58:29.392Z,53.76
2022-10-24T18:03:31.835Z,53.95
2022-10-24T18:08:34.065Z,54.38
2022-10-24T18:13:37.845Z,54.82
2022-10-24T18:18:40.780Z,55.16
2022-10-24T18:23:42.944Z,55.56
2022-10-24T18:28:47.176Z,55.45
2022-10-24T18:33:49.737Z,55.48
2022-10-24T18:38:54.916Z,56.10
2022-10-24T18:43:59.766Z,56.44
2022-10-24T18:49:02.086Z,56.49
2022-10-24T18:54:07.013Z,56.67
2022-10-24T18:59:21.054Z,56.82
2022-10-24T19:04:27.034Z,57.34
2022-10-24T19:09:28.995Z,57.57
2022-10-24T19:14:30.934Z,58.18
2022-10-24T19:19:36.695Z,58.17
2022-10-24T19:24:38.542Z,58.02
2022-10-24T19:29:40.275Z,58.24
2022-10-24T19:34:42.261Z,58.27
2022-10-24T19:39:44.137Z,58.16
2022-10-24T19:49:54.912Z,58.81
2022-10-24T19:54:56.792Z,58.77
2022-10-24T19:59:58.686Z,58.87
2022-10-24T20:05:00.485Z,59.01
2022-10-24T20:10:02.273Z,59.13
2022-10-24T20:15:04.358Z,59.52
2022-10-24T20:20:06.662Z,59.81
2022-10-24T20:25:08.522Z,59.58
2022-10-24T20:30:11.095Z,59.94
2022-10-24T20:35:12.853Z,60.35
2022-10-24T20:40:15.261Z,60.61
2022-10-24T20:45:21.937Z,60.67
2022-10-24T20:50:24.854Z,61.27
2022-10-24T20:55:43.001Z,61.59
2022-10-24T21:00:45.799Z,61.85
2022-10-24T21:05:47.636Z,62.40
2022-10-24T21:10:49.486Z,62.44
2022-10-24T21:15:57.357Z,62.70
2022-10-24T21:20:59.150Z,62.75
2022-10-24T21:26:06.202Z,63.10
2022-10-24T21:31:14.101Z,63.02
2022-10-24T21:36:18.812Z,63.32
2022-10-24T21:41:22.052Z,63.43
2022-10-24T21:46:26.464Z,63.58
2022-10-24T21:51:31.011Z,63.76
2022-10-24T21:56:36.914Z,63.46
2022-10-24T22:01:39.559Z,63.87
2022-10-24T22:06:42.082Z,63.36
2022-10-24T22:11:44.911Z,63.57
2022-10-24T22:16:47.438Z,63.58
2022-10-24T22:21:51.022Z,63.59
2022-10-24T22:26:53.056Z,63.24
2022-10-24T22:31:55.491Z,63.50
2022-10-24T22:37:12.872Z,63.28
2022-10-24T22:42:19.163Z,63.29
2022-10-24T22:47:37.011Z,63.11
2022-10-24T22:52:39.249Z,63.17
2022-10-24T22:57:41.374Z,63.37
2022-10-24T23:02:46.015Z,63.09
2022-10-24T23:07:51.505Z,63.37
2022-10-24T23:12:53.701Z,63.35
2022-10-24T23:17:55.731Z,63.05
2022-10-24T23:23:09.555Z,63.01
2022-10-24T23:28:26.983Z,63.17
2022-10-24T23:33:29.647Z,63.16
2022-10-24T23:38:31.681Z,63.01
2022-10-24T23:43:33.659Z,63.09
2022-10-24T23:48:57.079Z,63.11
2022-10-24T23:53:59.206Z,63.19
2022-10-24T23:59:01.020Z,63.26
